sensor_id;sensor_type;location;lat;lon;timestamp;P1;durP1;ratioP1;P2;durP2;ratioP2
64060;SDS011;60147;55.036;73.242;2023-04-15T00:00:40;10.98;;;4.53;;
64060;SDS011;60147;55.036;73.242;2023-04-15T00:03:43;11.85;;;2.83;;
64060;SDS011;60147;55.036;73.242;2023-04-15T00:06:09;7.90;;;4.10;;
64060;SDS011;60147;55.036;73.242;2023-04-15T00:08:34;6.28;;;2.70;;
64060;SDS011;60147;55.036;73.242;2023-04-15T00:11:05;6.13;;;2.65;;
64060;SDS011;60147;55.036;73.242;2023-04-15T00:13:31;12.68;;;3.63;;
64060;SDS011;60147;55.036;73.242;2023-04-15T00:16:20;7.22;;;2.90;;
64060;SDS011;60147;55.036;73.242;2023-04-15T00:18:55;5.70;;;2.22;;
64060;SDS011;60147;55.036;73.242;2023-04-15T00:21:21;7.30;;;3.45;;
64060;SDS011;60147;55.036;73.242;2023-04-15T00:23:52;10.73;;;3.30;;
64060;SDS011;60147;55.036;73.242;2023-04-15T00:26:29;6.75;;;2.50;;
64060;SDS011;60147;55.036;73.242;2023-04-15T00:28:55;6.22;;;2.80;;
64060;SDS011;60147;55.036;73.242;2023-04-15T00:31:21;5.20;;;2.72;;
64060;SDS011;60147;55.036;73.242;2023-04-15T00:33:47;5.30;;;2.67;;
64060;SDS011;60147;55.036;73.242;2023-04-15T00:36:31;3.97;;;2.25;;
64060;SDS011;60147;55.036;73.242;2023-04-15T00:38:58;6.93;;;2.40;;
64060;SDS011;60147;55.036;73.242;2023-04-15T00:44:25;8.40;;;3.75;;
64060;SDS011;60147;55.036;73.242;2023-04-15T00:47:09;10.32;;;4.68;;
64060;SDS011;60147;55.036;73.242;2023-04-15T00:49:35;6.07;;;2.80;;
64060;SDS011;60147;55.036;73.242;2023-04-15T00:52:02;10.57;;;3.45;;
64060;SDS011;60147;55.036;73.242;2023-04-15T00:54:46;3.08;;;2.10;;
64060;SDS011;60147;55.036;73.242;2023-04-15T00:57:12;3.35;;;2.00;;
64060;SDS011;60147;55.036;73.242;2023-04-15T00:59:38;5.85;;;2.28;;
64060;SDS011;60147;55.036;73.242;2023-04-15T01:02:04;5.68;;;1.77;;
64060;SDS011;60147;55.036;73.242;2023-04-15T01:04:30;6.05;;;2.33;;
64060;SDS011;60147;55.036;73.242;2023-04-15T01:06:56;3.28;;;1.75;;
64060;SDS011;60147;55.036;73.242;2023-04-15T01:09:22;5.45;;;1.90;;
64060;SDS011;60147;55.036;73.242;2023-04-15T01:11:52;2.72;;;1.70;;
64060;SDS011;60147;55.036;73.242;2023-04-15T01:14:18;2.72;;;1.48;;
64060;SDS011;60147;55.036;73.242;2023-04-15T01:16:44;9.73;;;1.63;;
64060;SDS011;60147;55.036;73.242;2023-04-15T01:19:10;7.28;;;1.90;;
64060;SDS011;60147;55.036;73.242;2023-04-15T01:21:39;3.35;;;1.80;;
64060;SDS011;60147;55.036;73.242;2023-04-15T01:24:07;3.05;;;1.50;;
64060;SDS011;60147;55.036;73.242;2023-04-15T01:26:36;7.28;;;1.60;;
64060;SDS011;60147;55.036;73.242;2023-04-15T01:29:39;3.65;;;1.58;;
64060;SDS011;60147;55.036;73.242;2023-04-15T01:32:23;4.05;;;1.73;;
64060;SDS011;60147;55.036;73.242;2023-04-15T01:34:50;4.53;;;1.55;;
64060;SDS011;60147;55.036;73.242;2023-04-15T01:37:16;2.45;;;1.48;;
64060;SDS011;60147;55.036;73.242;2023-04-15T01:39:47;2.40;;;1.38;;
64060;SDS011;60147;55.036;73.242;2023-04-15T01:42:14;3.55;;;1.90;;
64060;SDS011;60147;55.036;73.242;2023-04-15T01:44:41;2.30;;;1.67;;
64060;SDS011;60147;55.036;73.242;2023-04-15T01:47:25;2.15;;;1.40;;
64060;SDS011;60147;55.036;73.242;2023-04-15T01:49:51;2.55;;;1.45;;
64060;SDS011;60147;55.036;73.242;2023-04-15T01:52:17;3.30;;;1.70;;
64060;SDS011;60147;55.036;73.242;2023-04-15T01:57:14;2.95;;;1.77;;
64060;SDS011;60147;55.036;73.242;2023-04-15T01:59:40;3.10;;;1.67;;
64060;SDS011;60147;55.036;73.242;2023-04-15T02:04:54;6.38;;;1.50;;
64060;SDS011;60147;55.036;73.242;2023-04-15T02:07:20;7.70;;;2.40;;
64060;SDS011;60147;55.036;73.242;2023-04-15T02:10:09;5.38;;;1.60;;
64060;SDS011;60147;55.036;73.242;2023-04-15T02:12:37;3.85;;;1.90;;
64060;SDS011;60147;55.036;73.242;2023-04-15T02:15:04;4.82;;;2.13;;
64060;SDS011;60147;55.036;73.242;2023-04-15T02:17:34;10.48;;;2.30;;
64060;SDS011;60147;55.036;73.242;2023-04-15T02:22:46;2.70;;;1.63;;
64060;SDS011;60147;55.036;73.242;2023-04-15T02:28:08;4.80;;;2.10;;
64060;SDS011;60147;55.036;73.242;2023-04-15T02:30:34;2.88;;;1.83;;
64060;SDS011;60147;55.036;73.242;2023-04-15T02:33:07;2.47;;;1.65;;
64060;SDS011;60147;55.036;73.242;2023-04-15T02:35:33;3.03;;;1.75;;
64060;SDS011;60147;55.036;73.242;2023-04-15T02:37:59;11.23;;;3.40;;
64060;SDS011;60147;55.036;73.242;2023-04-15T02:40:26;10.07;;;3.20;;
64060;SDS011;60147;55.036;73.242;2023-04-15T02:43:11;3.95;;;2.22;;
64060;SDS011;60147;55.036;73.242;2023-04-15T02:45:37;6.35;;;2.42;;
64060;SDS011;60147;55.036;73.242;2023-04-15T02:50:52;5.47;;;2.30;;
64060;SDS011;60147;55.036;73.242;2023-04-15T02:53:18;6.60;;;2.78;;
64060;SDS011;60147;55.036;73.242;2023-04-15T02:55:44;3.42;;;2.15;;
64060;SDS011;60147;55.036;73.242;2023-04-15T02:58:38;5.85;;;2.08;;
64060;SDS011;60147;55.036;73.242;2023-04-15T03:01:05;4.35;;;2.22;;
64060;SDS011;60147;55.036;73.242;2023-04-15T03:03:32;6.68;;;2.15;;
64060;SDS011;60147;55.036;73.242;2023-04-15T03:05:58;3.10;;;1.88;;
64060;SDS011;60147;55.036;73.242;2023-04-15T03:08:46;3.70;;;2.28;;
64060;SDS011;60147;55.036;73.242;2023-04-15T03:11:14;4.70;;;1.90;;
64060;SDS011;60147;55.036;73.242;2023-04-15T03:19:06;6.10;;;1.90;;
64060;SDS011;60147;55.036;73.242;2023-04-15T03:21:33;2.67;;;1.73;;
64060;SDS011;60147;55.036;73.242;2023-04-15T03:24:00;2.92;;;1.80;;
64060;SDS011;60147;55.036;73.242;2023-04-15T03:26:27;3.72;;;2.00;;
64060;SDS011;60147;55.036;73.242;2023-04-15T03:29:12;4.97;;;1.48;;
64060;SDS011;60147;55.036;73.242;2023-04-15T03:31:40;5.25;;;2.42;;
64060;SDS011;60147;55.036;73.242;2023-04-15T03:34:10;4.72;;;1.95;;
64060;SDS011;60147;55.036;73.242;2023-04-15T03:36:36;7.28;;;2.67;;
64060;SDS011;60147;55.036;73.242;2023-04-15T03:39:02;7.30;;;2.50;;
64060;SDS011;60147;55.036;73.242;2023-04-15T03:41:28;4.47;;;2.53;;
64060;SDS011;60147;55.036;73.242;2023-04-15T03:43:55;4.95;;;1.73;;
64060;SDS011;60147;55.036;73.242;2023-04-15T03:46:31;7.28;;;1.70;;
64060;SDS011;60147;55.036;73.242;2023-04-15T03:48:57;5.45;;;1.90;;
64060;SDS011;60147;55.036;73.242;2023-04-15T03:51:27;3.92;;;1.90;;
64060;SDS011;60147;55.036;73.242;2023-04-15T03:53:53;3.85;;;1.98;;
64060;SDS011;60147;55.036;73.242;2023-04-15T03:56:38;2.50;;;1.67;;
64060;SDS011;60147;55.036;73.242;2023-04-15T04:01:58;3.22;;;1.77;;
64060;SDS011;60147;55.036;73.242;2023-04-15T04:04:24;7.47;;;2.22;;
64060;SDS011;60147;55.036;73.242;2023-04-15T04:07:13;4.70;;;1.65;;
64060;SDS011;60147;55.036;73.242;2023-04-15T04:09:39;3.67;;;1.75;;
64060;SDS011;60147;55.036;73.242;2023-04-15T04:12:06;4.68;;;2.13;;
64060;SDS011;60147;55.036;73.242;2023-04-15T04:14:32;5.18;;;1.70;;
64060;SDS011;60147;55.036;73.242;2023-04-15T04:16:58;6.53;;;2.05;;
64060;SDS011;60147;55.036;73.242;2023-04-15T04:19:24;14.32;;;3.50;;
64060;SDS011;60147;55.036;73.242;2023-04-15T04:22:21;4.25;;;1.85;;
64060;SDS011;60147;55.036;73.242;2023-04-15T04:24:57;3.88;;;2.20;;
64060;SDS011;60147;55.036;73.242;2023-04-15T04:27:34;4.97;;;1.70;;
64060;SDS011;60147;55.036;73.242;2023-04-15T04:30:23;8.77;;;1.90;;
64060;SDS011;60147;55.036;73.242;2023-04-15T04:33:18;5.50;;;1.65;;
64060;SDS011;60147;55.036;73.242;2023-04-15T04:38:28;3.67;;;1.70;;
64060;SDS011;60147;55.036;73.242;2023-04-15T04:40:56;5.05;;;2.60;;
64060;SDS011;60147;55.036;73.242;2023-04-15T04:43:22;8.88;;;4.32;;
64060;SDS011;60147;55.036;73.242;2023-04-15T04:46:07;8.52;;;2.90;;
64060;SDS011;60147;55.036;73.242;2023-04-15T04:51:17;9.85;;;2.00;;
64060;SDS011;60147;55.036;73.242;2023-04-15T04:53:48;3.13;;;1.42;;
64060;SDS011;60147;55.036;73.242;2023-04-15T04:56:32;4.80;;;1.95;;
64060;SDS011;60147;55.036;73.242;2023-04-15T04:59:27;3.28;;;1.90;;
64060;SDS011;60147;55.036;73.242;2023-04-15T05:02:11;8.57;;;1.80;;
64060;SDS011;60147;55.036;73.242;2023-04-15T05:04:37;7.15;;;2.20;;
64060;SDS011;60147;55.036;73.242;2023-04-15T05:07:03;4.03;;;1.80;;
64060;SDS011;60147;55.036;73.242;2023-04-15T05:09:29;6.82;;;2.47;;
64060;SDS011;60147;55.036;73.242;2023-04-15T05:12:15;3.45;;;1.63;;
64060;SDS011;60147;55.036;73.242;2023-04-15T05:14:52;2.55;;;1.70;;
64060;SDS011;60147;55.036;73.242;2023-04-15T05:17:18;7.22;;;2.08;;
64060;SDS011;60147;55.036;73.242;2023-04-15T05:19:51;7.95;;;2.78;;
64060;SDS011;60147;55.036;73.242;2023-04-15T05:22:18;6.55;;;2.53;;
64060;SDS011;60147;55.036;73.242;2023-04-15T05:27:28;5.53;;;1.98;;
64060;SDS011;60147;55.036;73.242;2023-04-15T05:29:57;4.72;;;1.75;;
64060;SDS011;60147;55.036;73.242;2023-04-15T05:32:23;7.20;;;2.10;;
64060;SDS011;60147;55.036;73.242;2023-04-15T05:34:49;9.63;;;3.08;;
64060;SDS011;60147;55.036;73.242;2023-04-15T05:37:15;5.82;;;2.55;;
64060;SDS011;60147;55.036;73.242;2023-04-15T05:39:41;9.38;;;3.20;;
64060;SDS011;60147;55.036;73.242;2023-04-15T05:42:08;4.10;;;2.47;;
64060;SDS011;60147;55.036;73.242;2023-04-15T05:44:33;5.28;;;2.45;;
64060;SDS011;60147;55.036;73.242;2023-04-15T05:46:59;6.13;;;2.08;;
64060;SDS011;60147;55.036;73.242;2023-04-15T05:49:26;6.20;;;2.15;;
64060;SDS011;60147;55.036;73.242;2023-04-15T05:51:52;5.13;;;2.08;;
64060;SDS011;60147;55.036;73.242;2023-04-15T05:54:18;5.10;;;1.88;;
64060;SDS011;60147;55.036;73.242;2023-04-15T05:56:56;3.80;;;2.15;;
64060;SDS011;60147;55.036;73.242;2023-04-15T05:59:22;3.70;;;1.73;;
64060;SDS011;60147;55.036;73.242;2023-04-15T06:01:48;3.83;;;1.60;;
64060;SDS011;60147;55.036;73.242;2023-04-15T06:07:17;5.72;;;1.70;;
64060;SDS011;60147;55.036;73.242;2023-04-15T06:09:43;5.75;;;1.88;;
64060;SDS011;60147;55.036;73.242;2023-04-15T06:12:09;3.05;;;1.70;;
64060;SDS011;60147;55.036;73.242;2023-04-15T06:14:38;8.93;;;3.15;;
64060;SDS011;60147;55.036;73.242;2023-04-15T06:17:22;7.10;;;1.90;;
64060;SDS011;60147;55.036;73.242;2023-04-15T06:19:48;5.55;;;1.88;;
64060;SDS011;60147;55.036;73.242;2023-04-15T06:22:20;5.85;;;1.63;;
64060;SDS011;60147;55.036;73.242;2023-04-15T06:25:05;6.78;;;2.50;;
64060;SDS011;60147;55.036;73.242;2023-04-15T06:27:42;8.48;;;2.40;;
64060;SDS011;60147;55.036;73.242;2023-04-15T06:30:08;8.25;;;2.60;;
64060;SDS011;60147;55.036;73.242;2023-04-15T06:32:34;5.20;;;2.20;;
64060;SDS011;60147;55.036;73.242;2023-04-15T06:35:05;3.80;;;1.80;;
64060;SDS011;60147;55.036;73.242;2023-04-15T06:37:41;4.78;;;2.70;;
64060;SDS011;60147;55.036;73.242;2023-04-15T06:40:08;6.85;;;2.13;;
64060;SDS011;60147;55.036;73.242;2023-04-15T06:42:34;3.10;;;1.80;;
64060;SDS011;60147;55.036;73.242;2023-04-15T06:45:02;2.13;;;1.30;;
64060;SDS011;60147;55.036;73.242;2023-04-15T06:47:28;6.28;;;2.00;;
64060;SDS011;60147;55.036;73.242;2023-04-15T06:49:53;5.72;;;2.22;;
64060;SDS011;60147;55.036;73.242;2023-04-15T06:52:19;8.23;;;2.60;;
64060;SDS011;60147;55.036;73.242;2023-04-15T06:54:54;3.22;;;1.60;;
64060;SDS011;60147;55.036;73.242;2023-04-15T06:57:25;9.32;;;2.80;;
64060;SDS011;60147;55.036;73.242;2023-04-15T06:59:56;18.05;;;4.97;;
64060;SDS011;60147;55.036;73.242;2023-04-15T07:02:22;13.77;;;3.78;;
64060;SDS011;60147;55.036;73.242;2023-04-15T07:05:06;12.55;;;4.38;;
64060;SDS011;60147;55.036;73.242;2023-04-15T07:07:51;9.48;;;2.10;;
64060;SDS011;60147;55.036;73.242;2023-04-15T07:10:36;13.48;;;2.40;;
64060;SDS011;60147;55.036;73.242;2023-04-15T07:13:02;5.53;;;2.05;;
64060;SDS011;60147;55.036;73.242;2023-04-15T07:15:28;5.82;;;2.72;;
64060;SDS011;60147;55.036;73.242;2023-04-15T07:17:54;5.00;;;2.30;;
64060;SDS011;60147;55.036;73.242;2023-04-15T07:20:20;8.82;;;3.25;;
64060;SDS011;60147;55.036;73.242;2023-04-15T07:25:49;6.10;;;2.25;;
64060;SDS011;60147;55.036;73.242;2023-04-15T07:28:16;9.75;;;2.40;;
64060;SDS011;60147;55.036;73.242;2023-04-15T07:30:42;4.85;;;2.28;;
64060;SDS011;60147;55.036;73.242;2023-04-15T07:33:08;6.03;;;1.33;;
64060;SDS011;60147;55.036;73.242;2023-04-15T07:35:34;8.45;;;3.13;;
64060;SDS011;60147;55.036;73.242;2023-04-15T07:38:00;6.03;;;2.42;;
64060;SDS011;60147;55.036;73.242;2023-04-15T07:40:45;4.93;;;1.45;;
64060;SDS011;60147;55.036;73.242;2023-04-15T07:43:11;4.97;;;2.45;;
64060;SDS011;60147;55.036;73.242;2023-04-15T07:45:38;10.55;;;3.85;;
64060;SDS011;60147;55.036;73.242;2023-04-15T07:48:13;6.30;;;3.00;;
64060;SDS011;60147;55.036;73.242;2023-04-15T07:50:39;9.82;;;2.88;;
64060;SDS011;60147;55.036;73.242;2023-04-15T07:53:23;8.60;;;2.60;;
64060;SDS011;60147;55.036;73.242;2023-04-15T07:55:49;5.15;;;2.20;;
64060;SDS011;60147;55.036;73.242;2023-04-15T08:01:23;8.82;;;1.95;;
64060;SDS011;60147;55.036;73.242;2023-04-15T08:06:34;14.27;;;4.50;;
64060;SDS011;60147;55.036;73.242;2023-04-15T08:08:59;11.82;;;4.13;;
64060;SDS011;60147;55.036;73.242;2023-04-15T08:11:25;8.07;;;2.83;;
64060;SDS011;60147;55.036;73.242;2023-04-15T08:14:10;52.00;;;4.32;;
64060;SDS011;60147;55.036;73.242;2023-04-15T08:16:42;40.92;;;4.38;;
64060;SDS011;60147;55.036;73.242;2023-04-15T08:19:12;26.27;;;4.88;;
64060;SDS011;60147;55.036;73.242;2023-04-15T08:21:48;26.67;;;9.18;;
64060;SDS011;60147;55.036;73.242;2023-04-15T08:24:14;13.80;;;4.32;;
64060;SDS011;60147;55.036;73.242;2023-04-15T08:26:43;22.75;;;8.52;;
64060;SDS011;60147;55.036;73.242;2023-04-15T08:31:54;15.32;;;3.20;;
64060;SDS011;60147;55.036;73.242;2023-04-15T08:34:20;9.35;;;3.08;;
64060;SDS011;60147;55.036;73.242;2023-04-15T08:36:46;15.73;;;4.65;;
64060;SDS011;60147;55.036;73.242;2023-04-15T08:39:11;34.05;;;10.65;;
64060;SDS011;60147;55.036;73.242;2023-04-15T08:44:14;18.10;;;5.82;;
64060;SDS011;60147;55.036;73.242;2023-04-15T08:49:43;16.40;;;4.07;;
64060;SDS011;60147;55.036;73.242;2023-04-15T08:52:14;17.30;;;4.88;;
64060;SDS011;60147;55.036;73.242;2023-04-15T08:57:30;15.95;;;5.22;;
64060;SDS011;60147;55.036;73.242;2023-04-15T09:00:15;53.65;;;12.75;;
64060;SDS011;60147;55.036;73.242;2023-04-15T09:02:41;33.67;;;8.13;;
64060;SDS011;60147;55.036;73.242;2023-04-15T09:05:07;7.90;;;3.30;;
64060;SDS011;60147;55.036;73.242;2023-04-15T09:07:33;11.20;;;3.03;;
64060;SDS011;60147;55.036;73.242;2023-04-15T09:13:07;17.20;;;4.00;;
64060;SDS011;60147;55.036;73.242;2023-04-15T09:15:33;16.73;;;5.10;;
64060;SDS011;60147;55.036;73.242;2023-04-15T09:18:02;22.60;;;7.00;;
64060;SDS011;60147;55.036;73.242;2023-04-15T09:20:28;15.32;;;2.83;;
64060;SDS011;60147;55.036;73.242;2023-04-15T09:22:54;22.02;;;4.13;;
64060;SDS011;60147;55.036;73.242;2023-04-15T09:25:24;25.33;;;6.35;;
64060;SDS011;60147;55.036;73.242;2023-04-15T09:28:09;21.55;;;4.93;;
64060;SDS011;60147;55.036;73.242;2023-04-15T09:30:38;74.53;;;7.10;;
64060;SDS011;60147;55.036;73.242;2023-04-15T09:37:48;11.02;;;2.22;;
64060;SDS011;60147;55.036;73.242;2023-04-15T09:40:14;3.92;;;1.60;;
64060;SDS011;60147;55.036;73.242;2023-04-15T09:43:06;8.43;;;2.15;;
64060;SDS011;60147;55.036;73.242;2023-04-15T09:45:33;7.75;;;1.60;;
64060;SDS011;60147;55.036;73.242;2023-04-15T09:48:22;8.57;;;2.25;;
64060;SDS011;60147;55.036;73.242;2023-04-15T09:50:46;7.72;;;2.67;;
64060;SDS011;60147;55.036;73.242;2023-04-15T09:53:17;7.43;;;2.17;;
64060;SDS011;60147;55.036;73.242;2023-04-15T09:55:44;5.68;;;2.03;;
64060;SDS011;60147;55.036;73.242;2023-04-15T09:58:20;8.45;;;2.20;;
64060;SDS011;60147;55.036;73.242;2023-04-15T10:00:47;18.30;;;5.38;;
64060;SDS011;60147;55.036;73.242;2023-04-15T10:03:18;9.30;;;3.20;;
64060;SDS011;60147;55.036;73.242;2023-04-15T10:05:45;6.07;;;2.10;;
64060;SDS011;60147;55.036;73.242;2023-04-15T10:08:18;9.63;;;2.85;;
64060;SDS011;60147;55.036;73.242;2023-04-15T10:10:45;4.20;;;1.90;;
64060;SDS011;60147;55.036;73.242;2023-04-15T10:13:16;15.85;;;2.60;;
64060;SDS011;60147;55.036;73.242;2023-04-15T10:15:48;6.70;;;1.50;;
64060;SDS011;60147;55.036;73.242;2023-04-15T10:18:26;3.92;;;1.88;;
64060;SDS011;60147;55.036;73.242;2023-04-15T10:20:52;6.25;;;2.15;;
64060;SDS011;60147;55.036;73.242;2023-04-15T10:23:19;10.65;;;2.53;;
64060;SDS011;60147;55.036;73.242;2023-04-15T10:25:45;7.43;;;1.40;;
64060;SDS011;60147;55.036;73.242;2023-04-15T10:28:21;6.75;;;3.45;;
64060;SDS011;60147;55.036;73.242;2023-04-15T10:30:47;15.77;;;7.80;;
64060;SDS011;60147;55.036;73.242;2023-04-15T10:33:14;13.05;;;5.57;;
64060;SDS011;60147;55.036;73.242;2023-04-15T10:35:41;14.88;;;4.05;;
64060;SDS011;60147;55.036;73.242;2023-04-15T10:43:37;6.93;;;2.38;;
64060;SDS011;60147;55.036;73.242;2023-04-15T10:46:06;8.63;;;2.58;;
64060;SDS011;60147;55.036;73.242;2023-04-15T10:48:32;5.60;;;2.05;;
64060;SDS011;60147;55.036;73.242;2023-04-15T10:51:01;7.80;;;2.58;;
64060;SDS011;60147;55.036;73.242;2023-04-15T10:56:18;3.17;;;1.83;;
64060;SDS011;60147;55.036;73.242;2023-04-15T11:12:39;9.00;;;4.22;;
64060;SDS011;60147;55.036;73.242;2023-04-15T11:17:50;17.30;;;7.95;;
64060;SDS011;60147;55.036;73.242;2023-04-15T11:20:22;12.13;;;4.78;;
64060;SDS011;60147;55.036;73.242;2023-04-15T11:25:57;8.35;;;3.55;;
64060;SDS011;60147;55.036;73.242;2023-04-15T11:28:28;17.55;;;6.32;;
64060;SDS011;60147;55.036;73.242;2023-04-15T11:31:13;12.98;;;5.00;;
64060;SDS011;60147;55.036;73.242;2023-04-15T11:33:58;9.77;;;4.35;;
64060;SDS011;60147;55.036;73.242;2023-04-15T11:36:35;27.80;;;13.07;;
64060;SDS011;60147;55.036;73.242;2023-04-15T11:39:01;13.98;;;5.60;;
64060;SDS011;60147;55.036;73.242;2023-04-15T11:41:27;13.13;;;5.57;;
64060;SDS011;60147;55.036;73.242;2023-04-15T11:43:53;12.90;;;5.53;;
64060;SDS011;60147;55.036;73.242;2023-04-15T11:46:19;12.85;;;5.60;;
64060;SDS011;60147;55.036;73.242;2023-04-15T11:48:45;10.68;;;5.57;;
64060;SDS011;60147;55.036;73.242;2023-04-15T11:56:49;12.13;;;6.88;;
64060;SDS011;60147;55.036;73.242;2023-04-15T11:59:43;24.38;;;11.07;;
64060;SDS011;60147;55.036;73.242;2023-04-15T12:02:20;13.98;;;7.32;;
64060;SDS011;60147;55.036;73.242;2023-04-15T12:07:58;14.93;;;6.07;;
64060;SDS011;60147;55.036;73.242;2023-04-15T12:10:43;23.10;;;8.57;;
64060;SDS011;60147;55.036;73.242;2023-04-15T12:13:15;15.85;;;9.27;;
64060;SDS011;60147;55.036;73.242;2023-04-15T12:15:40;26.92;;;9.30;;
64060;SDS011;60147;55.036;73.242;2023-04-15T12:18:08;73.20;;;21.25;;
64060;SDS011;60147;55.036;73.242;2023-04-15T12:20:44;27.92;;;14.57;;
64060;SDS011;60147;55.036;73.242;2023-04-15T12:23:18;36.97;;;10.93;;
64060;SDS011;60147;55.036;73.242;2023-04-15T12:26:12;62.58;;;10.18;;
64060;SDS011;60147;55.036;73.242;2023-04-15T12:28:39;96.07;;;32.13;;
64060;SDS011;60147;55.036;73.242;2023-04-15T12:34:37;14.75;;;6.57;;
64060;SDS011;60147;55.036;73.242;2023-04-15T12:37:04;17.97;;;6.73;;
64060;SDS011;60147;55.036;73.242;2023-04-15T12:42:15;7.85;;;4.50;;
64060;SDS011;60147;55.036;73.242;2023-04-15T12:44:41;10.88;;;5.72;;
64060;SDS011;60147;55.036;73.242;2023-04-15T12:47:25;13.95;;;5.20;;
64060;SDS011;60147;55.036;73.242;2023-04-15T12:49:51;11.73;;;3.45;;
64060;SDS011;60147;55.036;73.242;2023-04-15T12:52:27;8.95;;;3.50;;
64060;SDS011;60147;55.036;73.242;2023-04-15T12:54:53;12.68;;;5.72;;
64060;SDS011;60147;55.036;73.242;2023-04-15T12:57:19;5.60;;;3.63;;
64060;SDS011;60147;55.036;73.242;2023-04-15T12:59:45;18.27;;;8.98;;
64060;SDS011;60147;55.036;73.242;2023-04-15T13:02:29;23.63;;;9.93;;
64060;SDS011;60147;55.036;73.242;2023-04-15T13:04:55;14.63;;;6.65;;
64060;SDS011;60147;55.036;73.242;2023-04-15T13:07:39;8.82;;;4.28;;
64060;SDS011;60147;55.036;73.242;2023-04-15T13:10:15;10.85;;;4.68;;
64060;SDS011;60147;55.036;73.242;2023-04-15T13:12:51;14.90;;;8.05;;
64060;SDS011;60147;55.036;73.242;2023-04-15T13:15:18;13.10;;;4.38;;
64060;SDS011;60147;55.036;73.242;2023-04-15T13:17:50;11.98;;;5.20;;
64060;SDS011;60147;55.036;73.242;2023-04-15T13:20:16;8.00;;;3.85;;
64060;SDS011;60147;55.036;73.242;2023-04-15T13:22:43;8.88;;;3.75;;
64060;SDS011;60147;55.036;73.242;2023-04-15T13:25:09;11.18;;;5.10;;
64060;SDS011;60147;55.036;73.242;2023-04-15T13:27:36;21.67;;;10.23;;
64060;SDS011;60147;55.036;73.242;2023-04-15T13:30:26;17.27;;;4.95;;
64060;SDS011;60147;55.036;73.242;2023-04-15T13:33:10;10.35;;;3.80;;
64060;SDS011;60147;55.036;73.242;2023-04-15T13:35:36;15.02;;;4.40;;
64060;SDS011;60147;55.036;73.242;2023-04-15T13:38:03;10.50;;;4.30;;
64060;SDS011;60147;55.036;73.242;2023-04-15T13:40:29;14.18;;;4.55;;
64060;SDS011;60147;55.036;73.242;2023-04-15T13:42:55;15.02;;;4.93;;
64060;SDS011;60147;55.036;73.242;2023-04-15T13:45:49;20.77;;;9.13;;
64060;SDS011;60147;55.036;73.242;2023-04-15T13:48:38;19.02;;;6.30;;
64060;SDS011;60147;55.036;73.242;2023-04-15T13:51:22;32.65;;;11.23;;
64060;SDS011;60147;55.036;73.242;2023-04-15T13:53:48;24.20;;;9.30;;
64060;SDS011;60147;55.036;73.242;2023-04-15T13:56:14;10.35;;;4.20;;
64060;SDS011;60147;55.036;73.242;2023-04-15T13:58:58;18.17;;;4.97;;
64060;SDS011;60147;55.036;73.242;2023-04-15T14:01:27;24.45;;;6.65;;
64060;SDS011;60147;55.036;73.242;2023-04-15T14:03:53;14.13;;;5.85;;
64060;SDS011;60147;55.036;73.242;2023-04-15T14:06:19;18.35;;;7.05;;
64060;SDS011;60147;55.036;73.242;2023-04-15T14:08:45;17.35;;;8.48;;
64060;SDS011;60147;55.036;73.242;2023-04-15T14:11:20;25.23;;;7.65;;
64060;SDS011;60147;55.036;73.242;2023-04-15T14:13:56;17.67;;;8.75;;
64060;SDS011;60147;55.036;73.242;2023-04-15T14:16:22;23.15;;;6.28;;
64060;SDS011;60147;55.036;73.242;2023-04-15T14:21:38;18.75;;;5.22;;
64060;SDS011;60147;55.036;73.242;2023-04-15T14:24:22;18.70;;;5.05;;
64060;SDS011;60147;55.036;73.242;2023-04-15T14:26:48;22.63;;;7.30;;
64060;SDS011;60147;55.036;73.242;2023-04-15T14:29:15;30.25;;;7.03;;
64060;SDS011;60147;55.036;73.242;2023-04-15T14:31:41;10.35;;;5.10;;
64060;SDS011;60147;55.036;73.242;2023-04-15T14:34:27;21.48;;;6.90;;
64060;SDS011;60147;55.036;73.242;2023-04-15T14:36:58;29.08;;;9.85;;
64060;SDS011;60147;55.036;73.242;2023-04-15T14:39:25;22.92;;;10.32;;
64060;SDS011;60147;55.036;73.242;2023-04-15T14:42:02;66.38;;;14.40;;
64060;SDS011;60147;55.036;73.242;2023-04-15T14:44:27;42.17;;;13.05;;
64060;SDS011;60147;55.036;73.242;2023-04-15T14:47:12;42.22;;;13.38;;
64060;SDS011;60147;55.036;73.242;2023-04-15T14:52:22;34.08;;;7.75;;
64060;SDS011;60147;55.036;73.242;2023-04-15T14:54:48;17.17;;;5.88;;
64060;SDS011;60147;55.036;73.242;2023-04-15T14:57:32;28.17;;;13.55;;
64060;SDS011;60147;55.036;73.242;2023-04-15T14:59:58;43.50;;;19.80;;
64060;SDS011;60147;55.036;73.242;2023-04-15T15:02:24;34.10;;;13.35;;
64060;SDS011;60147;55.036;73.242;2023-04-15T15:04:56;31.02;;;12.43;;
64060;SDS011;60147;55.036;73.242;2023-04-15T15:07:45;14.00;;;6.85;;
64060;SDS011;60147;55.036;73.242;2023-04-15T15:10:11;29.50;;;10.43;;
64060;SDS011;60147;55.036;73.242;2023-04-15T15:12:39;45.97;;;17.52;;
64060;SDS011;60147;55.036;73.242;2023-04-15T15:15:28;23.92;;;8.95;;
64060;SDS011;60147;55.036;73.242;2023-04-15T15:18:04;27.55;;;10.65;;
64060;SDS011;60147;55.036;73.242;2023-04-15T15:26:23;25.98;;;7.47;;
64060;SDS011;60147;55.036;73.242;2023-04-15T15:28:54;13.70;;;6.13;;
64060;SDS011;60147;55.036;73.242;2023-04-15T15:31:20;9.32;;;4.72;;
64060;SDS011;60147;55.036;73.242;2023-04-15T15:33:46;19.40;;;7.20;;
64060;SDS011;60147;55.036;73.242;2023-04-15T15:36:30;23.77;;;9.50;;
64060;SDS011;60147;55.036;73.242;2023-04-15T15:38:56;21.25;;;9.90;;
64060;SDS011;60147;55.036;73.242;2023-04-15T15:41:22;17.27;;;6.78;;
64060;SDS011;60147;55.036;73.242;2023-04-15T15:43:48;15.98;;;6.07;;
64060;SDS011;60147;55.036;73.242;2023-04-15T15:46:19;18.45;;;5.90;;
64060;SDS011;60147;55.036;73.242;2023-04-15T15:48:45;20.83;;;5.57;;
64060;SDS011;60147;55.036;73.242;2023-04-15T15:51:11;34.60;;;6.55;;
64060;SDS011;60147;55.036;73.242;2023-04-15T15:53:37;28.50;;;5.35;;
64060;SDS011;60147;55.036;73.242;2023-04-15T15:56:03;27.27;;;6.22;;
64060;SDS011;60147;55.036;73.242;2023-04-15T15:58:53;18.52;;;5.93;;
64060;SDS011;60147;55.036;73.242;2023-04-15T16:01:29;27.10;;;5.90;;
64060;SDS011;60147;55.036;73.242;2023-04-15T16:03:55;19.73;;;5.47;;
64060;SDS011;60147;55.036;73.242;2023-04-15T16:06:20;26.42;;;6.70;;
64060;SDS011;60147;55.036;73.242;2023-04-15T16:08:46;33.75;;;6.60;;
64060;SDS011;60147;55.036;73.242;2023-04-15T16:11:12;32.17;;;8.48;;
64060;SDS011;60147;55.036;73.242;2023-04-15T16:13:38;31.85;;;7.30;;
64060;SDS011;60147;55.036;73.242;2023-04-15T16:16:04;52.05;;;9.13;;
64060;SDS011;60147;55.036;73.242;2023-04-15T16:18:35;39.25;;;10.15;;
64060;SDS011;60147;55.036;73.242;2023-04-15T16:21:19;25.25;;;8.63;;
64060;SDS011;60147;55.036;73.242;2023-04-15T16:23:50;35.20;;;11.18;;
64060;SDS011;60147;55.036;73.242;2023-04-15T16:26:16;41.25;;;11.93;;
64060;SDS011;60147;55.036;73.242;2023-04-15T16:28:52;46.05;;;12.73;;
64060;SDS011;60147;55.036;73.242;2023-04-15T16:31:23;52.20;;;13.82;;
64060;SDS011;60147;55.036;73.242;2023-04-15T16:33:59;37.17;;;12.98;;
64060;SDS011;60147;55.036;73.242;2023-04-15T16:36:24;32.17;;;12.43;;
64060;SDS011;60147;55.036;73.242;2023-04-15T16:41:35;27.98;;;9.85;;
64060;SDS011;60147;55.036;73.242;2023-04-15T16:44:31;34.88;;;12.75;;
64060;SDS011;60147;55.036;73.242;2023-04-15T16:46:58;33.67;;;10.95;;
64060;SDS011;60147;55.036;73.242;2023-04-15T16:49:24;33.72;;;10.65;;
64060;SDS011;60147;55.036;73.242;2023-04-15T16:51:49;29.92;;;9.70;;